createdAt,value
2023-08-11T00:01:06.342Z,71.24
2023-08-11T00:03:33.896Z,71.07
2023-08-11T00:06:00.456Z,71.47
2023-08-11T00:08:26.978Z,71.63
2023-08-11T00:10:53.906Z,71.85
2023-08-11T00:13:20.438Z,71.63
2023-08-11T00:15:47.072Z,71.45
2023-08-11T00:18:13.638Z,71.52
2023-08-11T00:20:40.157Z,71.55
2023-08-11T00:23:06.671Z,71.44
2023-08-11T00:25:33.192Z,71.62
2023-08-11T00:28:00.197Z,71.79
2023-08-11T00:30:26.785Z,71.85
2023-08-11T00:32:53.472Z,71.68
2023-08-11T00:35:20.212Z,71.84
2023-08-11T00:37:47.081Z,72.06
2023-08-11T00:40:13.580Z,71.96
2023-08-11T00:42:41.061Z,71.93
2023-08-11T00:45:08.180Z,72.00
2023-08-11T00:47:34.769Z,72.16
2023-08-11T00:50:01.320Z,72.25
2023-08-11T00:52:27.860Z,72.25
2023-08-11T00:54:57.214Z,72.44
2023-08-11T00:57:24.002Z,72.20
2023-08-11T00:59:50.851Z,72.20
2023-08-11T01:02:17.702Z,72.17
2023-08-11T01:04:44.226Z,72.15
2023-08-11T01:07:28.365Z,72.75
2023-08-11T01:10:04.944Z,72.43
2023-08-11T01:12:44.545Z,73.14
2023-08-11T01:15:23.135Z,72.94
2023-08-11T01:17:50.256Z,72.87
2023-08-11T01:20:17.494Z,73.10
2023-08-11T01:22:48.838Z,73.57
2023-08-11T01:25:15.392Z,73.87
2023-08-11T01:27:48.222Z,74.39
2023-08-11T01:30:17.322Z,74.24
2023-08-11T01:32:43.917Z,74.26
2023-08-11T01:35:10.919Z,73.84
2023-08-11T01:37:38.063Z,73.85
2023-08-11T01:40:11.678Z,73.73
2023-08-11T01:42:46.571Z,73.77
2023-08-11T01:45:18.218Z,73.74
2023-08-11T01:47:47.548Z,73.70
2023-08-11T01:50:14.880Z,73.78
2023-08-11T01:52:44.336Z,73.51
2023-08-11T01:55:11.719Z,73.70
2023-08-11T01:57:45.027Z,73.58
2023-08-11T02:00:21.954Z,73.75
2023-08-11T02:02:48.610Z,73.69
2023-08-11T02:05:18.995Z,73.52
2023-08-11T02:07:48.945Z,73.42
2023-08-11T02:10:15.494Z,73.39
2023-08-11T02:12:42.378Z,73.49
2023-08-11T02:15:10.236Z,73.41
2023-08-11T02:17:36.862Z,73.59
2023-08-11T02:20:14.797Z,73.74
2023-08-11T02:22:41.300Z,73.64
2023-08-11T02:25:08.395Z,73.92
2023-08-11T02:27:37.341Z,73.80
2023-08-11T02:30:06.285Z,73.77
2023-08-11T02:32:33.610Z,74.07
2023-08-11T02:35:00.160Z,74.14
2023-08-11T02:37:26.684Z,74.07
2023-08-11T02:39:53.223Z,74.10
2023-08-11T02:42:20.059Z,74.03
2023-08-11T02:44:46.568Z,73.99
2023-08-11T02:47:13.056Z,74.02
2023-08-11T02:49:39.695Z,74.21
2023-08-11T02:52:06.856Z,74.29
2023-08-11T02:54:33.974Z,74.40
2023-08-11T02:57:00.498Z,74.68
2023-08-11T02:59:27.090Z,74.77
2023-08-11T03:01:53.580Z,74.70
2023-08-11T03:04:20.154Z,74.39
2023-08-11T03:06:48.889Z,74.20
2023-08-11T03:09:15.637Z,73.27
2023-08-11T03:11:42.176Z,73.32
2023-08-11T03:14:08.684Z,72.87
2023-08-11T03:16:35.371Z,72.84
2023-08-11T03:19:02.621Z,72.20
2023-08-11T03:21:29.139Z,72.17
2023-08-11T03:23:56.236Z,72.17
2023-08-11T03:26:24.004Z,73.07
2023-08-11T03:28:50.955Z,73.92
2023-08-11T03:31:17.537Z,74.21
2023-08-11T03:33:46.168Z,73.13
2023-08-11T03:36:15.137Z,72.53
2023-08-11T03:38:44.013Z,72.32
2023-08-11T03:41:10.921Z,73.30
2023-08-11T03:43:37.862Z,73.87
2023-08-11T03:46:05.076Z,74.18
2023-08-11T03:48:33.829Z,73.11
2023-08-11T03:51:01.259Z,72.66
2023-08-11T03:53:30.414Z,72.84
2023-08-11T03:55:57.087Z,73.79
2023-08-11T03:58:24.560Z,74.96
2023-08-11T04:00:53.182Z,75.66
2023-08-11T04:03:20.024Z,76.02
2023-08-11T04:05:46.589Z,76.15
2023-08-11T04:08:13.117Z,76.12
2023-08-11T04:10:39.713Z,76.08
2023-08-11T04:13:06.296Z,76.08
2023-08-11T04:15:32.968Z,76.08
2023-08-11T04:17:59.613Z,76.12
2023-08-11T04:20:26.226Z,76.25
2023-08-11T04:22:52.739Z,76.81
2023-08-11T04:25:19.763Z,77.08
2023-08-11T04:27:47.588Z,76.12
2023-08-11T04:30:14.616Z,75.52
2023-08-11T04:32:44.572Z,75.37
2023-08-11T04:35:11.449Z,75.33
2023-08-11T04:37:40.317Z,76.70
2023-08-11T04:40:10.613Z,75.88
2023-08-11T04:42:38.932Z,75.33
2023-08-11T04:45:06.513Z,75.12
2023-08-11T04:47:34.262Z,75.06
2023-08-11T04:50:01.686Z,74.99
2023-08-11T04:52:28.262Z,75.96
2023-08-11T04:54:54.786Z,76.72
2023-08-11T04:57:21.482Z,76.49
2023-08-11T04:59:49.850Z,76.34
2023-08-11T05:02:16.626Z,75.08
2023-08-11T05:04:43.103Z,74.46
2023-08-11T05:07:09.801Z,74.31
2023-08-11T05:09:39.458Z,74.03
2023-08-11T05:12:06.494Z,74.97
2023-08-11T05:14:33.423Z,75.08
2023-08-11T05:17:01.599Z,75.00
2023-08-11T05:19:30.389Z,74.96
2023-08-11T05:21:56.904Z,75.20
2023-08-11T05:24:23.401Z,75.28
2023-08-11T05:26:49.899Z,76.35
2023-08-11T05:29:16.512Z,76.92
2023-08-11T05:31:43.066Z,77.30
2023-08-11T05:34:10.675Z,76.84
2023-08-11T05:36:38.003Z,76.46
2023-08-11T05:39:04.879Z,76.61
2023-08-11T05:41:31.383Z,77.07
2023-08-11T05:43:57.872Z,78.26
2023-08-11T05:46:24.622Z,77.83
2023-08-11T05:48:52.181Z,79.51
2023-08-11T05:51:18.668Z,78.51
2023-08-11T05:53:45.205Z,77.59
2023-08-11T05:56:11.732Z,78.46
2023-08-11T05:58:38.258Z,78.23
2023-08-11T06:01:04.869Z,79.36
2023-08-11T06:03:31.940Z,79.03
2023-08-11T06:06:02.663Z,78.14
2023-08-11T06:08:29.515Z,77.99
2023-08-11T06:10:56.259Z,78.01
2023-08-11T06:13:23.858Z,76.15
2023-08-11T06:15:51.106Z,75.06
2023-08-11T06:18:18.530Z,74.64
2023-08-11T06:20:45.587Z,74.58
2023-08-11T06:23:13.209Z,74.34
2023-08-11T06:25:40.045Z,74.57
2023-08-11T06:28:08.320Z,74.39
2023-08-11T06:30:34.908Z,74.51
2023-08-11T06:33:01.500Z,74.37
2023-08-11T06:35:28.094Z,73.79
2023-08-11T06:41:16.454Z,80.90
2023-08-11T06:43:42.958Z,76.28
2023-08-11T06:46:09.517Z,75.63
2023-08-11T06:48:36.085Z,74.81
2023-08-11T06:51:03.373Z,74.98
2023-08-11T06:53:29.917Z,74.81
2023-08-11T06:55:56.427Z,75.24
2023-08-11T06:58:26.051Z,74.37
2023-08-11T07:00:53.400Z,74.21
2023-08-11T07:03:45.141Z,73.95
2023-08-11T07:06:12.331Z,72.25
2023-08-11T07:08:39.537Z,72.95
2023-08-11T07:11:06.225Z,72.04
2023-08-11T07:13:32.885Z,71.50
2023-08-11T07:15:59.393Z,71.31
2023-08-11T07:18:25.931Z,71.41
2023-08-11T07:20:52.457Z,70.73
2023-08-11T07:23:19.120Z,69.57
2023-08-11T07:25:45.629Z,69.65
2023-08-11T07:28:12.963Z,69.80
2023-08-11T07:30:39.518Z,69.34
2023-08-11T07:33:06.058Z,66.41
2023-08-11T07:35:32.931Z,67.11
2023-08-11T07:38:00.131Z,67.66
2023-08-11T07:40:26.705Z,66.89
2023-08-11T07:42:53.178Z,64.39
2023-08-11T07:45:20.074Z,64.49
2023-08-11T07:47:47.264Z,65.38
2023-08-11T07:50:13.878Z,64.05
2023-08-11T07:52:40.400Z,64.48
2023-08-11T07:55:07.231Z,62.82
2023-08-11T07:57:33.848Z,61.11
2023-08-11T08:00:00.359Z,61.44
2023-08-11T08:02:27.595Z,59.38
2023-08-11T08:05:02.752Z,58.64
2023-08-11T08:07:37.049Z,58.57
2023-08-11T08:10:09.309Z,58.04
2023-08-11T08:12:39.462Z,57.53
2023-08-11T08:15:07.442Z,57.61
2023-08-11T08:17:34.431Z,56.69
2023-08-11T08:20:01.279Z,55.64
2023-08-11T08:22:28.050Z,56.42
2023-08-11T08:24:54.546Z,56.84
2023-08-11T08:27:25.452Z,56.09
2023-08-11T08:29:52.921Z,56.02
2023-08-11T08:32:20.378Z,55.60
2023-08-11T08:34:47.222Z,55.27
2023-08-11T08:37:13.808Z,54.74
2023-08-11T08:39:40.314Z,55.04
2023-08-11T08:42:07.042Z,54.95
2023-08-11T08:44:36.647Z,54.49
2023-08-11T08:47:05.505Z,54.30
2023-08-11T08:49:32.607Z,53.91
2023-08-11T08:51:59.463Z,54.13
2023-08-11T08:54:26.082Z,54.15
2023-08-11T08:56:52.813Z,53.36
2023-08-11T08:59:19.320Z,54.08
2023-08-11T09:01:45.970Z,53.26
2023-08-11T09:04:12.762Z,53.50
2023-08-11T09:06:39.918Z,53.21
2023-08-11T09:09:08.653Z,52.47
2023-08-11T09:11:35.202Z,53.29
2023-08-11T09:14:05.538Z,50.76
2023-08-11T09:16:34.025Z,50.72
2023-08-11T09:19:00.818Z,51.35
2023-08-11T09:21:27.469Z,50.69
2023-08-11T09:23:55.476Z,50.20
2023-08-11T09:26:22.866Z,50.23
2023-08-11T09:28:50.766Z,49.89
2023-08-11T09:31:21.331Z,49.94
2023-08-11T09:33:47.892Z,50.02
2023-08-11T09:36:14.465Z,48.92
2023-08-11T09:38:42.454Z,47.50
2023-08-11T09:41:10.127Z,48.08
2023-08-11T09:43:37.557Z,48.68
2023-08-11T09:46:04.164Z,46.77
2023-08-11T09:48:30.752Z,45.57
2023-08-11T09:50:58.324Z,47.00
2023-08-11T09:53:25.627Z,47.42
2023-08-11T09:55:55.814Z,45.49
2023-08-11T09:58:25.422Z,45.57
2023-08-11T10:00:57.021Z,46.08
2023-08-11T10:03:31.760Z,45.57
2023-08-11T10:05:59.641Z,45.89
2023-08-11T10:08:29.650Z,45.46
2023-08-11T10:10:56.165Z,45.79
2023-08-11T10:13:25.010Z,43.94
2023-08-11T10:15:53.279Z,43.26
2023-08-11T10:18:21.447Z,43.77
2023-08-11T10:20:52.331Z,43.42
2023-08-11T10:23:19.397Z,42.61
2023-08-11T10:25:49.969Z,42.66
2023-08-11T10:28:18.082Z,40.86
2023-08-11T10:30:44.709Z,41.60
2023-08-11T10:33:11.407Z,42.37
2023-08-11T10:35:49.086Z,43.07
2023-08-11T10:38:32.178Z,41.56
2023-08-11T10:41:04.101Z,42.61
2023-08-11T10:43:39.145Z,42.84
2023-08-11T10:46:23.338Z,43.28
2023-08-11T10:49:00.222Z,43.42
2023-08-11T10:51:29.147Z,43.01
2023-08-11T10:53:57.152Z,42.99
2023-08-11T10:56:35.360Z,42.35
2023-08-11T10:59:28.226Z,43.29
2023-08-11T11:01:55.775Z,42.74
2023-08-11T11:04:23.754Z,42.11
2023-08-11T11:06:52.304Z,42.22
2023-08-11T11:09:22.066Z,41.57
2023-08-11T11:11:51.968Z,41.49
2023-08-11T11:14:18.584Z,41.25
2023-08-11T11:16:45.258Z,40.65
2023-08-11T11:19:11.917Z,40.47
2023-08-11T11:21:39.656Z,39.72
2023-08-11T11:24:06.469Z,38.98
2023-08-11T11:26:33.668Z,39.14
2023-08-11T11:29:01.868Z,39.89
2023-08-11T11:31:33.901Z,40.21
2023-08-11T11:34:00.539Z,39.33
2023-08-11T11:36:27.278Z,38.98
2023-08-11T11:38:53.920Z,38.68
2023-08-11T11:41:20.827Z,38.40
2023-08-11T11:43:50.025Z,37.89
2023-08-11T11:46:19.083Z,37.67
2023-08-11T11:48:47.438Z,38.26
2023-08-11T11:51:15.508Z,38.20
2023-08-11T11:53:43.043Z,37.54
2023-08-11T11:56:09.980Z,37.54
2023-08-11T11:58:40.033Z,37.32
2023-08-11T12:01:17.853Z,36.88
2023-08-11T12:03:51.607Z,36.96
2023-08-11T12:06:19.465Z,36.94
2023-08-11T12:08:46.492Z,37.38
2023-08-11T12:11:14.222Z,37.14
2023-08-11T12:13:43.787Z,36.72
2023-08-11T12:16:15.895Z,37.24
2023-08-11T12:18:42.609Z,36.67
2023-08-11T12:21:12.006Z,36.62
2023-08-11T12:23:38.957Z,36.38
2023-08-11T12:26:05.460Z,36.98
2023-08-11T12:28:32.557Z,36.76
2023-08-11T12:30:59.102Z,37.57
2023-08-11T12:33:26.599Z,37.37
2023-08-11T12:35:53.237Z,38.34
2023-08-11T12:38:21.779Z,37.91
2023-08-11T12:40:49.166Z,37.76
2023-08-11T12:43:16.046Z,37.50
2023-08-11T12:45:43.459Z,36.43
2023-08-11T12:48:10.221Z,36.23
2023-08-11T12:50:37.231Z,37.04
2023-08-11T12:53:07.786Z,36.74
2023-08-11T12:55:35.093Z,36.22
2023-08-11T12:58:05.138Z,37.06
2023-08-11T13:00:31.754Z,37.89
2023-08-11T13:02:58.664Z,37.07
2023-08-11T13:05:25.579Z,37.39
2023-08-11T13:07:53.375Z,37.85
2023-08-11T13:10:21.988Z,37.70
2023-08-11T13:12:48.766Z,37.25
2023-08-11T13:15:15.267Z,36.10
2023-08-11T13:17:41.831Z,35.26
2023-08-11T13:20:10.910Z,35.55
2023-08-11T13:22:37.902Z,36.87
2023-08-11T13:25:04.968Z,37.76
2023-08-11T13:27:31.806Z,37.51
2023-08-11T13:29:58.298Z,37.00
2023-08-11T13:32:24.857Z,37.40
2023-08-11T13:34:51.360Z,38.25
2023-08-11T13:37:17.901Z,38.23
2023-08-11T13:39:44.392Z,38.63
2023-08-11T13:42:12.109Z,38.87
2023-08-11T13:44:38.924Z,39.13
2023-08-11T13:47:06.638Z,39.57
2023-08-11T13:49:33.218Z,39.56
2023-08-11T13:51:59.804Z,39.52
2023-08-11T13:54:27.694Z,39.75
2023-08-11T13:56:55.405Z,39.84
2023-08-11T13:59:21.940Z,39.23
2023-08-11T14:01:48.477Z,38.64
2023-08-11T14:04:14.941Z,39.08
2023-08-11T14:06:41.509Z,39.33
2023-08-11T14:09:08.081Z,39.70
2023-08-11T14:11:34.632Z,40.19
2023-08-11T14:14:01.413Z,40.11
2023-08-11T14:16:27.942Z,40.13
2023-08-11T14:18:56.649Z,40.37
2023-08-11T14:21:23.986Z,40.34
2023-08-11T14:23:52.717Z,39.90
2023-08-11T14:26:19.301Z,40.27
2023-08-11T14:28:45.877Z,41.04
2023-08-11T14:31:12.362Z,41.30
2023-08-11T14:33:41.294Z,41.40
2023-08-11T14:36:13.038Z,41.15
2023-08-11T14:38:40.421Z,41.18
2023-08-11T14:41:07.788Z,41.61
2023-08-11T14:43:34.874Z,41.48
2023-08-11T14:46:01.650Z,41.81
2023-08-11T14:48:28.462Z,41.40
2023-08-11T14:50:55.311Z,41.42
2023-08-11T14:53:23.708Z,41.46
2023-08-11T14:55:50.342Z,40.64
2023-08-11T14:58:17.253Z,40.83
2023-08-11T15:00:43.983Z,41.59
2023-08-11T15:03:10.641Z,41.76
2023-08-11T15:05:37.222Z,41.53
2023-08-11T15:08:03.904Z,41.58
2023-08-11T15:10:30.446Z,41.12
2023-08-11T15:12:57.219Z,41.93
2023-08-11T15:15:23.718Z,41.81
2023-08-11T15:17:50.255Z,41.66
2023-08-11T15:20:16.802Z,41.09
2023-08-11T15:22:43.327Z,41.01
2023-08-11T15:25:09.971Z,40.75
2023-08-11T15:27:36.719Z,41.33
2023-08-11T15:30:07.440Z,41.40
2023-08-11T15:32:33.878Z,41.16
2023-08-11T15:35:00.377Z,40.94
2023-08-11T15:37:26.869Z,41.00
2023-08-11T15:39:53.596Z,40.83
2023-08-11T15:42:20.110Z,40.88
2023-08-11T15:44:46.660Z,40.91
2023-08-11T15:47:13.142Z,40.78
2023-08-11T15:49:40.062Z,40.42
2023-08-11T15:52:06.845Z,40.68
2023-08-11T15:54:33.433Z,41.09
2023-08-11T15:57:00.455Z,40.73
2023-08-11T15:59:27.002Z,40.87
2023-08-11T16:02:14.910Z,40.88
2023-08-11T16:04:40.004Z,41.01
2023-08-11T16:07:06.479Z,40.94
2023-08-11T16:09:32.979Z,40.82
2023-08-11T16:11:59.495Z,40.58
2023-08-11T16:14:28.021Z,40.33
2023-08-11T16:16:55.248Z,40.58
2023-08-11T16:19:21.764Z,40.30
2023-08-11T16:21:48.634Z,40.13
2023-08-11T16:24:15.192Z,40.27
2023-08-11T16:26:41.758Z,40.62
2023-08-11T16:29:08.277Z,40.61
2023-08-11T16:31:34.879Z,40.78
2023-08-11T16:34:01.394Z,40.63
2023-08-11T16:36:28.656Z,40.74
2023-08-11T16:38:55.180Z,41.09
2023-08-11T16:41:22.030Z,40.93
2023-08-11T16:43:50.890Z,41.14
2023-08-11T16:46:17.741Z,41.71
2023-08-11T16:48:44.478Z,41.72
2023-08-11T16:51:11.210Z,41.58
2023-08-11T16:53:37.751Z,41.28
2023-08-11T16:56:04.274Z,41.50
2023-08-11T16:58:30.792Z,41.60
2023-08-11T17:00:57.959Z,41.58
2023-08-11T17:03:25.321Z,41.71
2023-08-11T17:05:52.383Z,42.09
2023-08-11T17:08:18.937Z,43.25
2023-08-11T17:10:45.526Z,44.49
2023-08-11T17:13:12.020Z,45.18
2023-08-11T17:15:38.835Z,45.44
2023-08-11T17:18:05.462Z,45.39
2023-08-11T17:20:32.077Z,45.40
2023-08-11T17:22:58.561Z,45.90
2023-08-11T17:25:25.088Z,46.14
2023-08-11T17:27:51.595Z,45.99
2023-08-11T17:30:18.157Z,46.56
2023-08-11T17:32:44.886Z,46.21
2023-08-11T17:35:11.443Z,46.52
2023-08-11T17:37:38.752Z,46.67
2023-08-11T17:40:05.962Z,46.76
2023-08-11T17:42:32.552Z,47.29
2023-08-11T17:44:59.066Z,48.49
2023-08-11T17:47:25.620Z,49.46
2023-08-11T17:49:52.753Z,50.48
2023-08-11T17:52:19.340Z,50.51
2023-08-11T17:54:45.837Z,51.59
2023-08-11T17:57:12.624Z,51.81
2023-08-11T17:59:39.130Z,51.63
2023-08-11T18:02:06.240Z,52.13
2023-08-11T18:04:32.779Z,52.12
2023-08-11T18:06:59.275Z,51.99
2023-08-11T18:09:25.789Z,52.42
2023-08-11T18:11:52.983Z,52.26
2023-08-11T18:14:19.505Z,52.81
2023-08-11T18:16:46.053Z,53.29
2023-08-11T18:19:12.608Z,53.54
2023-08-11T18:21:39.134Z,54.03
2023-08-11T18:24:06.274Z,54.54
2023-08-11T18:26:35.749Z,55.12
2023-08-11T18:29:02.436Z,55.47
2023-08-11T18:31:29.029Z,56.34
2023-08-11T18:33:55.622Z,56.77
2023-08-11T18:36:22.383Z,56.46
2023-08-11T18:38:48.983Z,56.97
2023-08-11T18:41:15.563Z,57.10
2023-08-11T18:43:42.404Z,57.72
2023-08-11T18:46:09.040Z,58.64
2023-08-11T18:48:35.704Z,60.14
2023-08-11T18:51:02.470Z,60.67
2023-08-11T18:53:29.021Z,60.37
2023-08-11T18:55:55.586Z,60.21
2023-08-11T18:58:22.410Z,60.39
2023-08-11T19:00:48.905Z,59.46
2023-08-11T19:03:15.550Z,58.62
2023-08-11T19:05:42.196Z,58.57
2023-08-11T19:08:09.492Z,58.82
2023-08-11T19:10:36.090Z,58.71
2023-08-11T19:13:02.738Z,58.67
2023-08-11T19:15:29.334Z,59.11
2023-08-11T19:17:55.955Z,59.21
2023-08-11T19:20:22.502Z,58.96
2023-08-11T19:22:48.999Z,58.97
2023-08-11T19:25:15.660Z,59.78
2023-08-11T19:27:42.219Z,60.14
2023-08-11T19:30:10.124Z,60.24
2023-08-11T19:32:36.771Z,60.58
2023-08-11T19:35:03.820Z,60.86
2023-08-11T19:37:30.553Z,60.93
2023-08-11T19:39:57.105Z,61.68
2023-08-11T19:42:23.594Z,61.75
2023-08-11T19:44:50.102Z,61.63
2023-08-11T19:47:16.647Z,61.55
2023-08-11T19:49:43.224Z,61.95
2023-08-11T19:52:09.999Z,62.28
2023-08-11T19:54:36.748Z,62.76
2023-08-11T19:57:03.296Z,62.36
2023-08-11T19:59:29.860Z,62.33
2023-08-11T20:01:56.423Z,62.82
2023-08-11T20:04:24.291Z,63.37
2023-08-11T20:06:50.903Z,63.64
2023-08-11T20:09:17.994Z,63.37
2023-08-11T20:11:44.541Z,62.83
2023-08-11T20:14:11.048Z,63.20
2023-08-11T20:16:37.553Z,64.00
2023-08-11T20:19:04.179Z,63.87
2023-08-11T20:21:30.672Z,64.28
2023-08-11T20:23:57.197Z,64.18
2023-08-11T20:26:23.720Z,64.84
2023-08-11T20:28:51.176Z,65.33
2023-08-11T20:31:17.750Z,65.55
2023-08-11T20:33:44.277Z,65.64
2023-08-11T20:36:10.782Z,65.64
2023-08-11T20:38:39.170Z,65.01
2023-08-11T20:41:05.870Z,64.81
2023-08-11T20:43:32.364Z,64.22
2023-08-11T20:45:58.875Z,64.58
2023-08-11T20:48:25.460Z,64.75
2023-08-11T20:50:52.352Z,65.15
2023-08-11T20:53:22.571Z,66.39
2023-08-11T20:55:49.318Z,67.49
2023-08-11T20:58:15.822Z,67.80
2023-08-11T21:00:42.705Z,67.51
2023-08-11T21:03:09.364Z,68.10
2023-08-11T21:05:35.989Z,68.42
2023-08-11T21:08:02.459Z,68.36
2023-08-11T21:10:29.042Z,67.95
2023-08-11T21:12:56.001Z,68.04
2023-08-11T21:15:22.814Z,67.98
2023-08-11T21:17:49.402Z,67.97
2023-08-11T21:20:16.053Z,68.41
2023-08-11T21:22:42.592Z,68.56
2023-08-11T21:25:09.162Z,68.78
2023-08-11T21:27:35.687Z,69.24
2023-08-11T21:30:02.405Z,69.42
2023-08-11T21:32:29.034Z,68.78
2023-08-11T21:34:57.115Z,68.63
2023-08-11T21:37:23.908Z,68.12
2023-08-11T21:39:50.441Z,68.33
2023-08-11T21:42:16.949Z,68.41
2023-08-11T21:44:43.480Z,68.47
2023-08-11T21:47:10.234Z,69.14
2023-08-11T21:49:37.167Z,69.34
2023-08-11T21:52:03.764Z,69.59
2023-08-11T21:54:30.310Z,69.29
2023-08-11T21:56:56.784Z,69.04
2023-08-11T21:59:23.276Z,69.73
2023-08-11T22:01:50.952Z,69.79
2023-08-11T22:04:17.486Z,69.19
2023-08-11T22:06:43.975Z,69.17
2023-08-11T22:09:10.503Z,69.54
2023-08-11T22:11:37.562Z,69.97
2023-08-11T22:14:05.674Z,70.42
2023-08-11T22:16:33.324Z,70.22
2023-08-11T22:19:00.055Z,70.27
2023-08-11T22:21:26.639Z,70.48
2023-08-11T22:23:53.148Z,70.52
2023-08-11T22:26:22.560Z,70.60
2023-08-11T22:28:49.059Z,70.40
2023-08-11T22:31:15.668Z,70.54
2023-08-11T22:33:42.249Z,70.79
2023-08-11T22:36:08.723Z,71.20
2023-08-11T22:38:35.382Z,70.96
2023-08-11T22:41:01.861Z,71.37
2023-08-11T22:43:28.359Z,71.26
2023-08-11T22:45:54.967Z,71.55
2023-08-11T22:48:21.699Z,71.22
2023-08-11T22:50:48.294Z,71.12
2023-08-11T22:53:14.798Z,71.07
2023-08-11T22:55:41.422Z,71.04
2023-08-11T22:58:07.962Z,71.18
2023-08-11T23:00:34.559Z,71.32
2023-08-11T23:03:01.239Z,71.67
2023-08-11T23:05:27.852Z,71.57
2023-08-11T23:07:56.535Z,71.42
2023-08-11T23:10:23.194Z,71.35
2023-08-11T23:12:49.758Z,71.23
2023-08-11T23:15:16.319Z,71.52
2023-08-11T23:17:42.989Z,71.98
2023-08-11T23:20:10.203Z,72.20
2023-08-11T23:22:36.720Z,71.47
2023-08-11T23:25:03.763Z,71.42
2023-08-11T23:27:33.231Z,71.09
2023-08-11T23:30:00.806Z,71.08
2023-08-11T23:32:30.430Z,71.03
2023-08-11T23:34:57.771Z,70.81
2023-08-11T23:37:24.717Z,70.95
2023-08-11T23:39:51.628Z,70.96
2023-08-11T23:42:18.126Z,70.64
2023-08-11T23:44:44.635Z,70.97
2023-08-11T23:47:11.752Z,71.49
2023-08-11T23:49:38.687Z,71.38
2023-08-11T23:52:05.823Z,71.17
2023-08-11T23:54:32.940Z,70.77
2023-08-11T23:56:59.533Z,71.20
2023-08-11T23:59:26.054Z,70.97
